createdAt,value
2016-09-23T00:00:35.041Z,1016.15
2016-09-23T00:01:15.584Z,1016.13
2016-09-23T00:01:56.125Z,1016.17
2016-09-23T00:02:36.666Z,1016.17
2016-09-23T00:03:17.205Z,1016.16
2016-09-23T00:03:57.751Z,1016.15
2016-09-23T00:04:38.309Z,1016.15
2016-09-23T00:05:18.853Z,1016.17
2016-09-23T00:05:59.394Z,1016.18
2016-09-23T00:06:39.922Z,1016.17
2016-09-23T00:07:20.465Z,1016.19
2016-09-23T00:08:01.005Z,1016.15
2016-09-23T00:08:41.550Z,1016.16
2016-09-23T00:09:22.094Z,1016.14
2016-09-23T00:10:02.635Z,1016.15
2016-09-23T00:10:43.177Z,1016.15
2016-09-23T00:11:23.720Z,1016.17
2016-09-23T00:12:04.264Z,1016.14
2016-09-23T00:12:44.801Z,1016.12
2016-09-23T00:13:25.339Z,1016.12
2016-09-23T00:14:05.879Z,1016.13
2016-09-23T00:14:46.426Z,1016.17
2016-09-23T00:15:26.967Z,1016.15
2016-09-23T00:16:07.506Z,1016.13
2016-09-23T00:16:48.047Z,1016.16
2016-09-23T00:17:28.591Z,1016.17
2016-09-23T00:18:09.134Z,1016.16
2016-09-23T00:18:49.675Z,1016.17
2016-09-23T00:19:30.221Z,1016.15
2016-09-23T00:20:10.761Z,1016.12
2016-09-23T00:20:51.306Z,1016.18
2016-09-23T00:21:31.842Z,1016.15
2016-09-23T00:22:12.384Z,1016.17
2016-09-23T00:22:52.922Z,1016.18
2016-09-23T00:23:33.469Z,1016.17
2016-09-23T00:24:14.006Z,1016.15
2016-09-23T00:24:54.550Z,1016.16
2016-09-23T00:25:35.093Z,1016.14
2016-09-23T00:26:15.637Z,1016.14
2016-09-23T00:26:56.176Z,1016.12
2016-09-23T00:27:36.720Z,1016.13
2016-09-23T00:28:17.260Z,1016.15
2016-09-23T00:28:57.804Z,1016.17
2016-09-23T00:29:38.349Z,1016.18
2016-09-23T00:30:18.885Z,1016.15
2016-09-23T00:30:59.424Z,1016.22
2016-09-23T00:31:40.028Z,1016.2
2016-09-23T00:32:20.571Z,1016.22
2016-09-23T00:33:01.111Z,1016.23
2016-09-23T00:33:41.649Z,1016.2
2016-09-23T00:34:22.187Z,1016.21
2016-09-23T00:35:02.732Z,1016.21
2016-09-23T00:35:43.276Z,1016.22
2016-09-23T00:36:23.815Z,1016.26
2016-09-23T00:37:04.358Z,1016.23
2016-09-23T00:37:44.902Z,1016.25
2016-09-23T00:38:25.439Z,1016.29
2016-09-23T00:39:05.987Z,1016.27
2016-09-23T00:39:46.529Z,1016.25
2016-09-23T00:40:27.067Z,1016.3
2016-09-23T00:41:07.604Z,1016.28
2016-09-23T00:41:48.148Z,1016.27
2016-09-23T00:42:28.686Z,1016.3
2016-09-23T00:43:09.229Z,1016.3
2016-09-23T00:43:49.769Z,1016.33
2016-09-23T00:44:30.319Z,1016.35
2016-09-23T00:45:10.866Z,1016.31
2016-09-23T00:45:51.407Z,1016.32
2016-09-23T00:46:31.948Z,1016.33
2016-09-23T00:47:12.494Z,1016.31
2016-09-23T00:47:53.041Z,1016.29
2016-09-23T00:48:33.581Z,1016.36
2016-09-23T00:49:14.123Z,1016.31
2016-09-23T00:49:54.662Z,1016.32
2016-09-23T00:50:35.195Z,1016.33
2016-09-23T00:51:15.741Z,1016.34
2016-09-23T00:51:56.277Z,1016.3
2016-09-23T00:52:36.818Z,1016.32
2016-09-23T00:53:17.362Z,1016.3
2016-09-23T00:53:57.908Z,1016.32
2016-09-23T00:54:38.454Z,1016.29
2016-09-23T00:55:19.031Z,1016.26
2016-09-23T00:55:59.581Z,1016.28
2016-09-23T00:56:40.120Z,1016.3
2016-09-23T00:57:20.662Z,1016.32
2016-09-23T00:58:01.200Z,1016.32
2016-09-23T00:58:41.752Z,1016.3
2016-09-23T00:59:22.286Z,1016.33
2016-09-23T01:00:02.826Z,1016.36
2016-09-23T01:00:43.367Z,1016.37
2016-09-23T01:01:23.911Z,1016.37
2016-09-23T01:02:04.479Z,1016.38
2016-09-23T01:02:45.025Z,1016.39
2016-09-23T01:03:25.570Z,1016.39
2016-09-23T01:04:06.113Z,1016.38
2016-09-23T01:04:46.659Z,1016.35
2016-09-23T01:05:27.197Z,1016.38
2016-09-23T01:06:07.740Z,1016.41
2016-09-23T01:06:48.275Z,1016.38
2016-09-23T01:07:28.821Z,1016.33
2016-09-23T01:08:09.360Z,1016.34
2016-09-23T01:08:49.897Z,1016.38
2016-09-23T01:09:30.439Z,1016.37
2016-09-23T01:10:10.983Z,1016.38
2016-09-23T01:10:51.517Z,1016.37
2016-09-23T01:11:32.065Z,1016.41
2016-09-23T01:12:12.613Z,1016.38
2016-09-23T01:12:53.151Z,1016.38
2016-09-23T01:13:33.727Z,1016.38
2016-09-23T01:14:14.251Z,1016.43
2016-09-23T01:14:54.799Z,1016.45
2016-09-23T01:15:35.343Z,1016.44
2016-09-23T01:16:15.888Z,1016.46
2016-09-23T01:16:56.442Z,1016.47
2016-09-23T01:17:36.971Z,1016.5
2016-09-23T01:18:17.515Z,1016.42
2016-09-23T01:18:58.056Z,1016.44
2016-09-23T01:19:38.599Z,1016.48
2016-09-23T01:20:19.142Z,1016.48
2016-09-23T01:20:59.684Z,1016.47
2016-09-23T01:21:40.205Z,1016.46
2016-09-23T01:22:20.737Z,1016.46
2016-09-23T01:23:01.270Z,1016.44
2016-09-23T01:23:41.808Z,1016.44
2016-09-23T01:24:22.348Z,1016.47
2016-09-23T01:25:02.883Z,1016.44
2016-09-23T01:25:43.420Z,1016.5
2016-09-23T01:26:23.960Z,1016.45
2016-09-23T01:27:04.510Z,1016.46
2016-09-23T01:27:45.051Z,1016.47
2016-09-23T01:28:25.590Z,1016.46
2016-09-23T01:29:06.129Z,1016.48
2016-09-23T01:29:46.666Z,1016.46
2016-09-23T01:30:27.206Z,1016.51
2016-09-23T01:31:07.749Z,1016.5
2016-09-23T01:31:48.284Z,1016.52
2016-09-23T01:32:28.824Z,1016.51
2016-09-23T01:33:09.368Z,1016.53
2016-09-23T01:33:49.906Z,1016.54
2016-09-23T01:34:30.452Z,1016.54
2016-09-23T01:35:10.993Z,1016.55
2016-09-23T01:35:51.534Z,1016.55
2016-09-23T01:36:32.076Z,1016.57
2016-09-23T01:37:12.611Z,1016.56
2016-09-23T01:37:53.156Z,1016.56
2016-09-23T01:38:33.681Z,1016.57
2016-09-23T01:39:14.223Z,1016.57
2016-09-23T01:39:54.766Z,1016.57
2016-09-23T01:40:35.311Z,1016.54
2016-09-23T01:41:15.865Z,1016.61
2016-09-23T01:41:56.409Z,1016.57
2016-09-23T01:42:36.949Z,1016.58
2016-09-23T01:43:17.494Z,1016.59
2016-09-23T01:43:58.033Z,1016.63
2016-09-23T01:44:38.578Z,1016.59
2016-09-23T01:45:19.120Z,1016.61
2016-09-23T01:45:59.654Z,1016.58
2016-09-23T01:46:40.201Z,1016.6
2016-09-23T01:47:20.730Z,1016.6
2016-09-23T01:48:01.274Z,1016.61
2016-09-23T01:48:41.816Z,1016.58
2016-09-23T01:49:22.359Z,1016.62
2016-09-23T01:50:02.904Z,1016.61
2016-09-23T01:50:43.461Z,1016.61
2016-09-23T01:51:24.008Z,1016.59
2016-09-23T01:52:04.536Z,1016.59
2016-09-23T01:52:45.075Z,1016.61
2016-09-23T01:53:25.615Z,1016.61
2016-09-23T01:54:06.157Z,1016.58
2016-09-23T01:54:46.690Z,1016.62
2016-09-23T01:55:27.234Z,1016.58
2016-09-23T01:56:07.777Z,1016.63
2016-09-23T01:56:48.325Z,1016.61
2016-09-23T01:57:28.870Z,1016.62
2016-09-23T01:58:09.408Z,1016.59
2016-09-23T01:58:49.934Z,1016.6
2016-09-23T01:59:30.517Z,1016.61
2016-09-23T02:00:11.058Z,1016.65
2016-09-23T02:00:51.598Z,1016.61
2016-09-23T02:01:32.132Z,1016.57
2016-09-23T02:02:12.681Z,1016.61
2016-09-23T02:02:53.212Z,1016.58
2016-09-23T02:03:33.754Z,1016.59
2016-09-23T02:04:14.296Z,1016.6
2016-09-23T02:04:54.835Z,1016.61
2016-09-23T02:05:35.376Z,1016.63
2016-09-23T02:06:15.904Z,1016.65
2016-09-23T02:06:56.446Z,1016.64
2016-09-23T02:07:36.982Z,1016.66
2016-09-23T02:08:17.510Z,1016.63
2016-09-23T02:08:58.051Z,1016.65
2016-09-23T02:09:38.586Z,1016.68
2016-09-23T02:10:19.126Z,1016.67
2016-09-23T02:10:59.673Z,1016.67
2016-09-23T02:11:40.217Z,1016.68
2016-09-23T02:12:20.745Z,1016.69
2016-09-23T02:13:01.289Z,1016.69
2016-09-23T02:13:41.821Z,1016.69
2016-09-23T02:14:22.369Z,1016.69
2016-09-23T02:15:02.913Z,1016.7
2016-09-23T02:15:43.454Z,1016.72
2016-09-23T02:16:23.983Z,1016.73
2016-09-23T02:17:04.524Z,1016.73
2016-09-23T02:17:45.071Z,1016.69
2016-09-23T02:18:25.607Z,1016.69
2016-09-23T02:19:06.147Z,1016.7
2016-09-23T02:19:46.694Z,1016.67
2016-09-23T02:20:27.218Z,1016.7
2016-09-23T02:21:07.759Z,1016.66
2016-09-23T02:21:48.299Z,1016.66
2016-09-23T02:22:28.845Z,1016.67
2016-09-23T02:23:09.387Z,1016.69
2016-09-23T02:23:49.934Z,1016.68
2016-09-23T02:24:30.479Z,1016.72
2016-09-23T02:25:11.004Z,1016.7
2016-09-23T02:25:51.534Z,1016.68
2016-09-23T02:26:32.090Z,1016.69
2016-09-23T02:27:12.640Z,1016.67
2016-09-23T02:27:53.181Z,1016.65
2016-09-23T02:28:33.706Z,1016.69
2016-09-23T02:29:14.253Z,1016.68
2016-09-23T02:29:54.793Z,1016.67
2016-09-23T02:30:35.343Z,1016.68
2016-09-23T02:31:15.884Z,1016.67
2016-09-23T02:31:56.421Z,1016.68
2016-09-23T02:32:36.960Z,1016.67
2016-09-23T02:33:17.505Z,1016.7
2016-09-23T02:33:58.043Z,1016.67
2016-09-23T02:34:38.588Z,1016.67
2016-09-23T02:35:19.140Z,1016.71
2016-09-23T02:35:59.678Z,1016.71
2016-09-23T02:36:40.222Z,1016.73
2016-09-23T02:37:20.765Z,1016.71
2016-09-23T02:38:01.310Z,1016.7
2016-09-23T02:38:41.854Z,1016.74
2016-09-23T02:39:22.393Z,1016.72
2016-09-23T02:40:02.942Z,1016.72
2016-09-23T02:40:43.482Z,1016.75
2016-09-23T02:41:24.014Z,1016.73
2016-09-23T02:42:04.555Z,1016.72
2016-09-23T02:42:45.096Z,1016.74
2016-09-23T02:43:25.641Z,1016.75
2016-09-23T02:44:06.184Z,1016.76
2016-09-23T02:44:46.732Z,1016.7
2016-09-23T02:45:27.280Z,1016.7
2016-09-23T02:46:07.822Z,1016.68
2016-09-23T02:46:48.372Z,1016.78
2016-09-23T02:47:28.923Z,1016.77
2016-09-23T02:48:09.463Z,1016.73
2016-09-23T02:48:50.012Z,1016.72
2016-09-23T02:49:30.550Z,1016.77
2016-09-23T02:50:11.078Z,1016.76
2016-09-23T02:50:51.616Z,1016.76
2016-09-23T02:51:32.166Z,1016.78
2016-09-23T02:52:12.694Z,1016.77
2016-09-23T02:52:53.242Z,1016.8
2016-09-23T02:53:33.788Z,1016.8
2016-09-23T02:54:14.339Z,1016.82
2016-09-23T02:54:54.878Z,1016.83
2016-09-23T02:55:35.430Z,1016.83
2016-09-23T02:56:15.970Z,1016.83
2016-09-23T02:56:56.520Z,1016.85
2016-09-23T02:57:37.061Z,1016.87
2016-09-23T02:58:17.608Z,1016.82
2016-09-23T02:58:58.148Z,1016.84
2016-09-23T02:59:38.685Z,1016.84
2016-09-23T03:00:19.224Z,1016.85
2016-09-23T03:00:59.764Z,1016.84
2016-09-23T03:01:40.304Z,1016.86
2016-09-23T03:02:20.847Z,1016.83
2016-09-23T03:03:01.396Z,1016.85
2016-09-23T03:03:41.935Z,1016.85
2016-09-23T03:04:22.480Z,1016.87
2016-09-23T03:05:03.025Z,1016.86
2016-09-23T03:05:43.568Z,1016.87
2016-09-23T03:06:24.116Z,1016.89
2016-09-23T03:07:04.649Z,1016.84
2016-09-23T03:07:45.192Z,1016.83
2016-09-23T03:08:25.731Z,1016.84
2016-09-23T03:09:06.272Z,1016.82
2016-09-23T03:09:46.810Z,1016.83
2016-09-23T03:10:27.359Z,1016.83
2016-09-23T03:11:07.908Z,1016.85
2016-09-23T03:11:48.458Z,1016.84
2016-09-23T03:12:28.999Z,1016.82
2016-09-23T03:13:09.547Z,1016.83
2016-09-23T03:13:50.095Z,1016.83
2016-09-23T03:14:30.639Z,1016.89
2016-09-23T03:15:11.180Z,1016.84
2016-09-23T03:15:51.726Z,1016.85
2016-09-23T03:16:32.266Z,1016.85
2016-09-23T03:17:12.802Z,1016.86
2016-09-23T03:17:53.342Z,1016.87
2016-09-23T03:18:33.927Z,1016.87
2016-09-23T03:19:14.433Z,1016.86
2016-09-23T03:19:54.966Z,1016.88
2016-09-23T03:20:35.499Z,1016.91
2016-09-23T03:21:16.044Z,1016.87
2016-09-23T03:21:56.575Z,1016.89
2016-09-23T03:22:37.120Z,1016.86
2016-09-23T03:23:17.657Z,1016.84
2016-09-23T03:23:58.199Z,1016.86
2016-09-23T03:24:38.737Z,1016.87
2016-09-23T03:25:19.287Z,1016.81
2016-09-23T03:25:59.828Z,1016.85
2016-09-23T03:26:40.371Z,1016.88
2016-09-23T03:27:20.939Z,1016.85
2016-09-23T03:28:01.483Z,1016.86
2016-09-23T03:28:42.028Z,1016.89
2016-09-23T03:29:22.566Z,1016.9
2016-09-23T03:30:03.103Z,1016.92
2016-09-23T03:30:43.629Z,1016.92
2016-09-23T03:31:24.187Z,1016.92
2016-09-23T03:32:04.697Z,1016.91
2016-09-23T03:32:45.229Z,1016.92
2016-09-23T03:33:25.777Z,1016.93
2016-09-23T03:34:06.320Z,1016.93
2016-09-23T03:34:46.876Z,1016.97
2016-09-23T03:35:27.421Z,1016.93
2016-09-23T03:36:07.966Z,1016.96
2016-09-23T03:36:48.509Z,1016.95
2016-09-23T03:37:29.051Z,1016.92
2016-09-23T03:38:09.575Z,1016.95
2016-09-23T03:38:50.118Z,1016.95
2016-09-23T03:39:30.661Z,1016.95
2016-09-23T03:40:11.203Z,1016.92
2016-09-23T03:40:51.754Z,1016.94
2016-09-23T03:41:32.308Z,1016.93
2016-09-23T03:42:12.847Z,1016.93
2016-09-23T03:42:53.387Z,1016.89
2016-09-23T03:43:33.937Z,1016.89
2016-09-23T03:44:14.486Z,1016.92
2016-09-23T03:44:55.030Z,1016.86
2016-09-23T03:45:35.576Z,1016.9
2016-09-23T03:46:16.119Z,1016.91
2016-09-23T03:46:56.657Z,1016.93
2016-09-23T03:47:37.207Z,1016.94
2016-09-23T03:48:17.748Z,1016.94
2016-09-23T03:48:58.285Z,1016.95
2016-09-23T03:49:38.833Z,1016.97
2016-09-23T03:50:19.378Z,1016.95
2016-09-23T03:50:59.915Z,1016.96
2016-09-23T03:51:40.463Z,1016.95
2016-09-23T03:52:21.002Z,1016.95
2016-09-23T03:53:01.547Z,1016.98
2016-09-23T03:53:42.141Z,1016.96
2016-09-23T03:54:22.689Z,1016.92
2016-09-23T03:55:03.220Z,1016.91
2016-09-23T03:55:43.771Z,1016.92
2016-09-23T03:56:24.307Z,1016.93
2016-09-23T03:57:04.856Z,1016.95
2016-09-23T03:57:45.403Z,1016.91
2016-09-23T03:58:25.946Z,1016.88
2016-09-23T03:59:06.491Z,1016.88
2016-09-23T03:59:47.059Z,1016.9
2016-09-23T04:00:27.631Z,1016.92
2016-09-23T04:01:08.181Z,1016.89
2016-09-23T04:01:48.727Z,1016.89
2016-09-23T04:02:29.264Z,1016.9
2016-09-23T04:03:09.811Z,1016.91
2016-09-23T04:03:50.355Z,1016.9
2016-09-23T04:04:30.910Z,1016.87
2016-09-23T04:05:11.453Z,1016.92
2016-09-23T04:05:51.992Z,1016.91
2016-09-23T04:06:32.537Z,1016.93
2016-09-23T04:07:13.134Z,1016.94
2016-09-23T04:07:53.684Z,1016.94
2016-09-23T04:08:34.222Z,1016.92
2016-09-23T04:09:14.768Z,1016.91
2016-09-23T04:09:55.319Z,1016.9
2016-09-23T04:10:35.853Z,1016.94
2016-09-23T04:11:16.443Z,1016.92
2016-09-23T04:11:56.976Z,1016.93
2016-09-23T04:12:37.520Z,1016.97
2016-09-23T04:13:18.064Z,1016.98
2016-09-23T04:13:58.616Z,1016.95
2016-09-23T04:14:39.158Z,1017
2016-09-23T04:15:19.700Z,1016.97
2016-09-23T04:16:00.243Z,1016.98
2016-09-23T04:16:40.779Z,1017
2016-09-23T04:17:21.317Z,1016.95
2016-09-23T04:18:01.881Z,1017.04
2016-09-23T04:18:42.398Z,1017.04
2016-09-23T04:19:22.946Z,1017.01
2016-09-23T04:20:03.489Z,1017.01
2016-09-23T04:20:44.044Z,1017.02
2016-09-23T04:21:24.572Z,1017.06
2016-09-23T04:22:05.116Z,1017.01
2016-09-23T04:22:45.661Z,1017.06
2016-09-23T04:23:26.210Z,1017.08
2016-09-23T04:24:06.751Z,1017.06
2016-09-23T04:24:47.293Z,1017.09
2016-09-23T04:25:27.835Z,1017.09
2016-09-23T04:26:08.374Z,1017.08
2016-09-23T04:26:48.914Z,1017.08
2016-09-23T04:27:29.464Z,1017.09
2016-09-23T04:28:10.007Z,1017.1
2016-09-23T04:28:50.542Z,1017.06
2016-09-23T04:29:31.088Z,1017.04
2016-09-23T04:30:11.630Z,1017.07
2016-09-23T04:30:52.179Z,1017.09
2016-09-23T04:31:32.723Z,1017.1
2016-09-23T04:32:13.268Z,1017.06
2016-09-23T04:32:53.811Z,1017.12
2016-09-23T04:33:34.355Z,1017.11
2016-09-23T04:34:14.898Z,1017.09
2016-09-23T04:34:55.435Z,1017.11
2016-09-23T04:35:35.977Z,1017.12
2016-09-23T04:36:16.513Z,1017.14
2016-09-23T04:36:57.052Z,1017.17
2016-09-23T04:37:37.597Z,1017.13
2016-09-23T04:38:18.135Z,1017.12
2016-09-23T04:38:58.697Z,1017.16
2016-09-23T04:39:39.230Z,1017.15
2016-09-23T04:40:19.780Z,1017.13
2016-09-23T04:41:00.316Z,1017.15
2016-09-23T04:41:40.851Z,1017.17
2016-09-23T04:42:21.390Z,1017.17
2016-09-23T04:43:01.931Z,1017.18
2016-09-23T04:43:42.477Z,1017.21
2016-09-23T04:44:23.015Z,1017.22
2016-09-23T04:45:03.554Z,1017.23
2016-09-23T04:45:44.106Z,1017.28
2016-09-23T04:46:24.643Z,1017.26
2016-09-23T04:47:05.187Z,1017.31
2016-09-23T04:47:45.731Z,1017.27
2016-09-23T04:48:26.282Z,1017.27
2016-09-23T04:49:06.824Z,1017.25
2016-09-23T04:49:47.378Z,1017.25
2016-09-23T04:50:27.966Z,1017.28
2016-09-23T04:51:08.512Z,1017.27
2016-09-23T04:51:49.057Z,1017.26
2016-09-23T04:52:29.596Z,1017.28
2016-09-23T04:53:10.141Z,1017.29
2016-09-23T04:53:50.691Z,1017.27
2016-09-23T04:54:31.228Z,1017.26
2016-09-23T04:55:11.768Z,1017.31
2016-09-23T04:55:52.306Z,1017.3
2016-09-23T04:56:32.852Z,1017.31
2016-09-23T04:57:13.395Z,1017.32
2016-09-23T04:57:53.935Z,1017.29
2016-09-23T04:58:34.493Z,1017.27
2016-09-23T04:59:15.022Z,1017.31
2016-09-23T04:59:55.567Z,1017.29
2016-09-23T05:00:36.113Z,1017.28
2016-09-23T05:01:16.658Z,1017.29
2016-09-23T05:01:57.202Z,1017.27
2016-09-23T05:02:37.746Z,1017.28
2016-09-23T05:03:18.292Z,1017.29
2016-09-23T05:03:58.830Z,1017.31
2016-09-23T05:04:39.368Z,1017.3
2016-09-23T05:05:19.912Z,1017.31
2016-09-23T05:06:00.459Z,1017.34
2016-09-23T05:06:40.999Z,1017.32
2016-09-23T05:07:21.549Z,1017.34
2016-09-23T05:08:02.070Z,1017.36
2016-09-23T05:08:42.607Z,1017.36
2016-09-23T05:09:23.134Z,1017.35
2016-09-23T05:10:03.659Z,1017.34
2016-09-23T05:10:44.206Z,1017.38
2016-09-23T05:11:24.747Z,1017.38
2016-09-23T05:12:05.283Z,1017.41
2016-09-23T05:12:45.832Z,1017.42
2016-09-23T05:13:26.360Z,1017.39
2016-09-23T05:14:06.913Z,1017.37
2016-09-23T05:14:47.458Z,1017.38
2016-09-23T05:15:28.008Z,1017.39
2016-09-23T05:16:08.543Z,1017.41
2016-09-23T05:16:49.059Z,1017.36
2016-09-23T05:17:29.604Z,1017.45
2016-09-23T05:18:10.139Z,1017.43
2016-09-23T05:18:50.688Z,1017.38
2016-09-23T05:19:31.214Z,1017.42
2016-09-23T05:20:11.763Z,1017.4
2016-09-23T05:20:52.297Z,1017.41
2016-09-23T05:21:32.813Z,1017.41
2016-09-23T05:22:13.365Z,1017.41
2016-09-23T05:22:53.892Z,1017.44
2016-09-23T05:23:34.418Z,1017.43
2016-09-23T05:24:14.955Z,1017.44
2016-09-23T05:24:55.483Z,1017.43
2016-09-23T05:25:36.015Z,1017.44
2016-09-23T05:26:16.560Z,1017.43
2016-09-23T05:26:57.094Z,1017.44
2016-09-23T05:27:37.635Z,1017.44
2016-09-23T05:28:18.177Z,1017.47
2016-09-23T05:28:58.723Z,1017.49
2016-09-23T05:29:39.268Z,1017.49
2016-09-23T05:30:19.818Z,1017.48
2016-09-23T05:31:00.361Z,1017.5
2016-09-23T05:31:40.903Z,1017.51
2016-09-23T05:32:21.438Z,1017.53
2016-09-23T05:33:01.983Z,1017.5
2016-09-23T05:33:42.518Z,1017.57
2016-09-23T05:34:23.061Z,1017.58
2016-09-23T05:35:03.618Z,1017.6
2016-09-23T05:35:44.189Z,1017.58
2016-09-23T05:36:24.738Z,1017.64
2016-09-23T05:37:05.280Z,1017.65
2016-09-23T05:37:45.825Z,1017.65
2016-09-23T05:38:26.364Z,1017.68
2016-09-23T05:39:06.909Z,1017.67
2016-09-23T05:39:47.459Z,1017.64
2016-09-23T05:40:28.000Z,1017.7
2016-09-23T05:41:08.538Z,1017.66
2016-09-23T05:41:49.087Z,1017.69
2016-09-23T05:42:29.626Z,1017.66
2016-09-23T05:43:10.166Z,1017.67
2016-09-23T05:43:50.702Z,1017.64
2016-09-23T05:44:31.251Z,1017.66
2016-09-23T05:45:11.790Z,1017.69
2016-09-23T05:45:52.357Z,1017.67
2016-09-23T05:46:32.885Z,1017.67
2016-09-23T05:47:13.417Z,1017.67
2016-09-23T05:47:53.963Z,1017.67
2016-09-23T05:48:34.517Z,1017.66
2016-09-23T05:49:15.055Z,1017.65
2016-09-23T05:49:55.608Z,1017.68
2016-09-23T05:50:36.147Z,1017.73
2016-09-23T05:51:16.693Z,1017.71
2016-09-23T05:51:57.236Z,1017.72
2016-09-23T05:52:37.781Z,1017.72
2016-09-23T05:53:18.323Z,1017.69
2016-09-23T05:53:58.859Z,1017.72
2016-09-23T05:54:39.395Z,1017.72
2016-09-23T05:55:19.937Z,1017.71
2016-09-23T05:56:00.480Z,1017.73
2016-09-23T05:56:41.027Z,1017.73
2016-09-23T05:57:21.577Z,1017.76
2016-09-23T05:58:02.122Z,1017.79
2016-09-23T05:58:42.664Z,1017.76
2016-09-23T05:59:23.215Z,1017.76
2016-09-23T06:00:03.758Z,1017.8
2016-09-23T06:00:44.302Z,1017.8
2016-09-23T06:01:24.846Z,1017.86
2016-09-23T06:02:05.389Z,1017.87
2016-09-23T06:02:45.933Z,1017.87
2016-09-23T06:03:26.468Z,1017.86
2016-09-23T06:04:07.003Z,1017.89
2016-09-23T06:04:47.549Z,1017.9
2016-09-23T06:05:28.089Z,1017.92
2016-09-23T06:06:08.636Z,1017.91
2016-09-23T06:06:49.182Z,1017.99
2016-09-23T06:07:29.730Z,1017.98
2016-09-23T06:08:10.274Z,1017.99
2016-09-23T06:08:50.820Z,1018.01
2016-09-23T06:09:31.362Z,1017.95
2016-09-23T06:10:11.903Z,1017.98
2016-09-23T06:10:52.436Z,1017.96
2016-09-23T06:11:32.966Z,1017.98
2016-09-23T06:12:13.510Z,1017.97
2016-09-23T06:12:54.056Z,1018.02
2016-09-23T06:13:34.595Z,1017.98
2016-09-23T06:14:15.140Z,1018
2016-09-23T06:14:55.681Z,1018.02
2016-09-23T06:15:36.228Z,1018
2016-09-23T06:16:16.772Z,1018.01
2016-09-23T06:16:57.317Z,1018.03
2016-09-23T06:17:37.867Z,1018.02
2016-09-23T06:18:18.409Z,1017.98
2016-09-23T06:18:58.949Z,1018.03
2016-09-23T06:19:39.491Z,1018.04
2016-09-23T06:20:20.036Z,1018.04
2016-09-23T06:21:00.584Z,1018.04
2016-09-23T06:21:41.125Z,1018.09
2016-09-23T06:22:21.669Z,1018.05
2016-09-23T06:23:02.219Z,1018.05
2016-09-23T06:23:42.754Z,1018.05
2016-09-23T06:24:23.300Z,1018.06
2016-09-23T06:25:03.842Z,1018.04
2016-09-23T06:25:44.385Z,1018.02
2016-09-23T06:26:24.930Z,1018.05
2016-09-23T06:27:05.482Z,1018
2016-09-23T06:27:46.035Z,1018.02
2016-09-23T06:28:26.572Z,1017.99
2016-09-23T06:29:07.124Z,1018.04
2016-09-23T06:31:41.749Z,1018.07
2016-09-23T06:32:22.296Z,1018.07
2016-09-23T06:33:02.838Z,1018.06
2016-09-23T06:33:43.372Z,1018.08
2016-09-23T06:34:23.915Z,1018.06
2016-09-23T06:35:04.454Z,1018.05
2016-09-23T06:35:45.001Z,1018.07
2016-09-23T06:36:25.548Z,1018.07
2016-09-23T06:37:06.088Z,1018.06
2016-09-23T06:37:46.633Z,1018.05
2016-09-23T06:38:27.184Z,1018.05
2016-09-23T06:39:07.729Z,1018.05
2016-09-23T06:39:48.274Z,1018.06
2016-09-23T06:40:28.818Z,1018.07
2016-09-23T06:41:09.365Z,1018.07
2016-09-23T06:41:49.907Z,1018.12
2016-09-23T06:42:30.447Z,1018.11
2016-09-23T06:43:10.989Z,1018.12
2016-09-23T06:43:51.526Z,1018.13
2016-09-23T06:44:32.063Z,1018.12
2016-09-23T06:45:12.636Z,1018.14
2016-09-23T06:45:53.181Z,1018.14
2016-09-23T06:46:33.721Z,1018.1
2016-09-23T06:47:14.257Z,1018.15
2016-09-23T06:47:54.796Z,1018.18
2016-09-23T06:48:35.341Z,1018.16
2016-09-23T06:49:15.892Z,1018.21
2016-09-23T06:49:56.436Z,1018.19
2016-09-23T06:50:36.976Z,1018.2
2016-09-23T06:51:17.509Z,1018.24
2016-09-23T06:51:58.048Z,1018.24
2016-09-23T06:52:38.591Z,1018.27
2016-09-23T06:53:19.121Z,1018.27
2016-09-23T06:53:59.671Z,1018.32
2016-09-23T06:54:40.211Z,1018.27
2016-09-23T06:55:20.756Z,1018.29
2016-09-23T06:56:01.302Z,1018.33
2016-09-23T06:56:41.846Z,1018.32
2016-09-23T06:57:22.384Z,1018.34
2016-09-23T06:58:02.930Z,1018.35
2016-09-23T06:58:43.475Z,1018.35
2016-09-23T06:59:24.009Z,1018.4
2016-09-23T07:00:04.548Z,1018.38
2016-09-23T07:00:45.087Z,1018.39
2016-09-23T07:01:25.629Z,1018.38
2016-09-23T07:02:06.174Z,1018.4
2016-09-23T07:02:46.716Z,1018.39
2016-09-23T07:03:27.260Z,1018.41
2016-09-23T07:04:07.803Z,1018.4
2016-09-23T07:04:48.342Z,1018.41
2016-09-23T07:05:28.886Z,1018.42
2016-09-23T07:06:09.431Z,1018.43
2016-09-23T07:06:49.974Z,1018.42
2016-09-23T07:07:30.518Z,1018.44
2016-09-23T07:08:11.059Z,1018.45
2016-09-23T07:08:51.589Z,1018.46
2016-09-23T07:09:32.135Z,1018.49
2016-09-23T07:10:12.674Z,1018.5
2016-09-23T07:10:53.220Z,1018.48
2016-09-23T07:11:33.762Z,1018.48
2016-09-23T07:12:14.306Z,1018.45
2016-09-23T07:12:54.848Z,1018.45
2016-09-23T07:13:35.391Z,1018.46
2016-09-23T07:14:15.936Z,1018.48
2016-09-23T07:14:56.467Z,1018.46
2016-09-23T07:15:37.012Z,1018.47
2016-09-23T07:16:17.556Z,1018.44
2016-09-23T07:16:58.099Z,1018.47
2016-09-23T07:17:38.635Z,1018.49
2016-09-23T07:18:19.182Z,1018.49
2016-09-23T07:18:59.727Z,1018.5
2016-09-23T07:19:40.281Z,1018.5
2016-09-23T07:20:20.830Z,1018.49
2016-09-23T07:21:01.384Z,1018.5
2016-09-23T07:21:41.930Z,1018.54
2016-09-23T07:22:22.476Z,1018.53
2016-09-23T07:23:03.024Z,1018.53
2016-09-23T07:23:43.572Z,1018.57
2016-09-23T07:24:24.115Z,1018.53
2016-09-23T07:25:04.661Z,1018.53
2016-09-23T07:25:45.203Z,1018.54
2016-09-23T07:26:25.743Z,1018.54
2016-09-23T07:27:06.279Z,1018.57
2016-09-23T07:27:46.817Z,1018.58
2016-09-23T07:28:27.356Z,1018.6
2016-09-23T07:29:07.898Z,1018.61
2016-09-23T07:29:48.431Z,1018.64
2016-09-23T07:30:28.982Z,1018.64
2016-09-23T07:31:09.524Z,1018.63
2016-09-23T07:31:50.068Z,1018.68
2016-09-23T07:32:30.614Z,1018.65
2016-09-23T07:33:11.155Z,1018.64
2016-09-23T07:33:51.698Z,1018.65
2016-09-23T07:34:32.233Z,1018.65
2016-09-23T07:35:12.774Z,1018.67
2016-09-23T07:35:53.313Z,1018.69
2016-09-23T07:36:33.861Z,1018.64
2016-09-23T07:37:14.401Z,1018.63
2016-09-23T07:37:54.945Z,1018.63
2016-09-23T07:38:35.493Z,1018.63
2016-09-23T07:39:16.036Z,1018.62
2016-09-23T07:39:56.584Z,1018.63
2016-09-23T07:40:37.136Z,1018.63
2016-09-23T07:41:17.680Z,1018.64
2016-09-23T07:41:58.229Z,1018.68
2016-09-23T07:42:38.768Z,1018.67
2016-09-23T07:43:19.316Z,1018.69
2016-09-23T07:43:59.858Z,1018.7
2016-09-23T07:44:40.394Z,1018.7
2016-09-23T07:45:20.925Z,1018.69
2016-09-23T07:46:01.465Z,1018.72
2016-09-23T07:46:42.011Z,1018.67
2016-09-23T07:47:22.554Z,1018.72
2016-09-23T07:48:03.106Z,1018.67
2016-09-23T07:48:43.654Z,1018.68
2016-09-23T07:49:24.207Z,1018.72
2016-09-23T07:50:04.755Z,1018.68
2016-09-23T07:50:45.299Z,1018.69
2016-09-23T07:51:25.845Z,1018.69
2016-09-23T07:52:06.392Z,1018.73
2016-09-23T07:52:46.937Z,1018.76
2016-09-23T07:53:27.484Z,1018.74
2016-09-23T07:54:08.029Z,1018.78
2016-09-23T07:54:48.570Z,1018.75
2016-09-23T07:55:29.104Z,1018.79
2016-09-23T07:56:09.650Z,1018.78
2016-09-23T07:56:50.192Z,1018.82
2016-09-23T07:57:30.735Z,1018.82
2016-09-23T07:58:11.285Z,1018.81
2016-09-23T07:58:51.835Z,1018.82
2016-09-23T07:59:32.377Z,1018.81
2016-09-23T08:00:12.925Z,1018.84
2016-09-23T08:00:53.470Z,1018.85
2016-09-23T08:01:34.020Z,1018.85
2016-09-23T08:02:14.568Z,1018.85
2016-09-23T08:02:55.125Z,1018.84
2016-09-23T08:03:35.674Z,1018.86
2016-09-23T08:04:16.221Z,1018.88
2016-09-23T08:04:56.773Z,1018.9
2016-09-23T08:05:37.321Z,1018.88
2016-09-23T08:06:17.875Z,1018.9
2016-09-23T08:06:58.411Z,1018.91
2016-09-23T08:07:38.953Z,1018.92
2016-09-23T08:08:19.501Z,1018.96
2016-09-23T08:09:00.044Z,1018.93
2016-09-23T08:09:40.583Z,1018.91
2016-09-23T08:10:21.117Z,1018.9
2016-09-23T08:11:01.667Z,1018.92
2016-09-23T08:11:42.211Z,1018.92
2016-09-23T08:12:22.753Z,1018.92
2016-09-23T08:13:03.299Z,1018.95
2016-09-23T08:13:43.849Z,1018.95
2016-09-23T08:14:24.390Z,1018.93